Pays
Station

 

Conditions  météo  pour  Phoenix, Phoenix Sky Harbor International Airport  -  Etats-Unis    Etats-Unis

  
41 °C
    
 
 

METAR pour Phoenix, Phoenix Sky Harbor International Airport :

KPHX 172351Z VRB04KT 10SM FEW080 FEW150 SCT190 SCT250 41/14 A2980 RMK AO2 SLP067 T04060139 10417 20350 58030

 

Voici le bulletin pour Phoenix, Phoenix Sky Harbor International Airport - Etats-Unis.
 
Le bulletin a été fait il y a 52 minutes, à 23:51 UTC .
Le vent soufflait à la vitesse de 2.1 mètres par seconde de direction variable.
 
La température était de 41 °C, avec un point de rosée à 14 °C.
La température ressentie était de 41 °C.
 
La pression atmosphérique était de 1009 hPa.
L'humidité relative était de 20.6%.
 
Il y avait 1 à 2/8ème de nébulosité à une hauteur de 2438 mètres, 1 à 2/8ème de nébulosité à une hauteur de 4572 mètres et 3 à 4/8ème de nébulosité à une hauteur de 5791 mètres.
 
La visibilité globale était de 16.1 kilomètres.
 

 
 
 

Pays :   A   B   C   D   E   F   G   H   I   J   K   L   M   N   O   P   Q   R   S   T   U   V   W   Y   Z

 

Partenaires :  Info Météo avec Met'info
Météo Marine avec MeteoMarine.net
Infos Site  |  Infos Légales  |  Crédits  |  Confidentialité
Contactez-nous  |  Ajouter aux favoris
© 2013-2018 METAR - Tous droits réservés